Time;durP1;ratioP1;P1;durP2;ratioP2;P2;SDS_P1;SDS_P2;PMS_P1;PMS_P2;Temp;Humidity;BMP_temperature;BMP_pressure;BME280_temperature;BME280_humidity;BME280_pressure;Samples;Min_cycle;Max_cycle;Signal;HPM_P1;HPM_P2
2021/03/05 00:03:04;;;;;;;25.55;19.13;;;6.80;99.90;;;;;;10569878;28;20154;-75
2021/03/05 00:08:08;;;;;;;31.02;20.80;;;6.90;99.90;;;;;;10551526;28;20062;-74
2021/03/05 00:13:10;;;;;;;28.15;19.85;;;6.80;99.90;;;;;;10570281;28;20055;-75
2021/03/05 00:18:13;;;;;;;29.67;20.20;;;6.90;99.90;;;;;;10568789;28;20083;-75
2021/03/05 00:23:15;;;;;;;28.73;21.33;;;6.80;99.90;;;;;;10550809;28;20547;-75
2021/03/05 00:28:17;;;;;;;28.63;21.10;;;7.00;99.90;;;;;;10568797;28;20170;-75
2021/03/05 00:33:19;;;;;;;33.70;23.08;;;6.90;99.90;;;;;;10567953;28;20096;-75
2021/03/05 00:38:28;;;;;;;33.45;23.17;;;6.80;99.90;;;;;;10568840;28;20044;-75
2021/03/05 00:43:30;;;;;;;31.23;21.60;;;6.80;99.90;;;;;;10567600;28;20048;-74
2021/03/05 00:48:31;;;;;;;33.80;23.73;;;6.80;99.90;;;;;;10551953;28;20078;-75
2021/03/05 00:53:33;;;;;;;33.08;23.25;;;6.80;99.90;;;;;;10568985;28;20247;-75
2021/03/05 00:58:34;;;;;;;33.38;23.70;;;6.90;99.90;;;;;;10550792;28;20568;-75
2021/03/05 01:03:36;;;;;;;35.42;24.70;;;6.90;99.90;;;;;;10569742;28;20139;-74
2021/03/05 01:08:49;;;;;;;36.28;24.80;;;6.90;99.90;;;;;;10569606;28;20407;-75
2021/03/05 01:13:50;;;;;;;39.25;25.65;;;7.00;99.90;;;;;;10569397;28;20113;-75
2021/03/05 01:18:52;;;;;;;35.30;26.00;;;6.90;99.90;;;;;;10569874;28;20134;-75
2021/03/05 01:23:54;;;;;;;38.45;25.85;;;6.80;99.90;;;;;;10569505;28;20055;-75
2021/03/05 01:28:55;;;;;;;41.10;25.70;;;6.80;99.90;;;;;;10569195;28;20466;-75
2021/03/05 01:33:56;;;;;;;41.38;27.02;;;6.80;99.90;;;;;;10569827;28;20130;-75
2021/03/05 01:39:09;;;;;;;36.85;25.88;;;6.80;99.90;;;;;;10567875;28;20465;-75
2021/03/05 01:44:13;;;;;;;40.30;26.00;;;6.80;99.90;;;;;;10569656;28;20311;-74
2021/03/05 01:49:14;;;;;;;27.17;20.05;;;6.80;99.90;;;;;;10568706;28;20076;-75
2021/03/05 01:54:16;;;;;;;23.58;15.10;;;6.60;99.90;;;;;;10568090;28;20146;-74
2021/03/05 01:59:44;;;;;;;19.95;14.13;;;6.50;99.90;;;;;;10569327;28;20083;-75
2021/03/05 02:04:45;;;;;;;17.25;12.55;;;6.50;99.90;;;;;;10565749;28;20138;-75
2021/03/05 02:09:46;;;;;;;16.17;11.45;;;6.40;99.90;;;;;;10520174;28;20503;-75
2021/03/05 02:14:48;;;;;;;17.92;10.85;;;6.30;99.90;;;;;;10573812;28;20452;-75
2021/03/05 02:20:21;;;;;;;14.98;10.52;;;6.30;99.90;;;;;;10575946;28;20144;-75
2021/03/05 02:25:53;;;;;;;16.95;10.55;;;6.30;99.90;;;;;;10575662;28;20135;-75
2021/03/05 02:31:12;;;;;;;17.85;9.77;;;6.30;99.90;;;;;;10575216;28;20074;-75
2021/03/05 02:36:21;;;;;;;14.82;8.85;;;6.30;99.90;;;;;;10575296;28;20078;-75
2021/03/05 02:41:25;;;;;;;20.33;10.52;;;6.30;99.90;;;;;;10556721;28;20158;-75
2021/03/05 02:46:27;;;;;;;13.50;9.20;;;6.30;99.90;;;;;;10574747;28;20142;-75
2021/03/05 02:51:32;;;;;;;12.18;9.10;;;6.20;99.90;;;;;;10557132;28;20058;-75
2021/03/05 02:56:38;;;;;;;13.40;9.13;;;6.30;99.90;;;;;;10574133;28;20078;-75
2021/03/05 03:01:45;;;;;;;13.30;8.40;;;6.40;99.90;;;;;;10557625;28;20047;-75
2021/03/05 03:06:49;;;;;;;12.73;7.97;;;6.30;99.90;;;;;;10582461;28;20100;-75
2021/03/05 03:11:51;;;;;;;16.00;8.40;;;6.40;99.90;;;;;;10580795;28;20056;-74
2021/03/05 03:16:53;;;;;;;14.00;7.80;;;6.30;99.90;;;;;;10547740;28;20048;-74
2021/03/05 03:21:56;;;;;;;12.00;7.50;;;6.30;99.90;;;;;;10563715;28;20054;-74
2021/03/05 03:26:59;;;;;;;12.23;7.63;;;6.20;99.90;;;;;;10580732;28;20084;-74
2021/03/05 03:32:00;;;;;;;17.00;7.90;;;6.20;99.90;;;;;;10581884;28;20051;-74
2021/03/05 03:37:03;;;;;;;14.88;8.10;;;5.90;99.90;;;;;;10581647;28;20491;-74
2021/03/05 03:42:05;;;;;;;16.13;7.80;;;6.00;99.90;;;;;;10580777;28;20079;-74
2021/03/05 03:47:06;;;;;;;14.23;7.82;;;6.00;99.90;;;;;;10581922;28;20086;-74
2021/03/05 03:52:24;;;;;;;21.30;9.35;;;6.00;99.90;;;;;;10581123;28;20040;-74
2021/03/05 03:57:28;;;;;;;17.67;8.65;;;5.90;99.90;;;;;;10580352;28;20502;-74
2021/03/05 04:02:32;;;;;;;16.75;8.13;;;5.80;99.90;;;;;;10560757;28;20094;-74
2021/03/05 04:07:35;;;;;;;18.13;8.00;;;5.80;99.90;;;;;;10575357;28;20503;-74
2021/03/05 04:12:37;;;;;;;14.82;8.32;;;5.90;99.90;;;;;;10554786;28;20055;-75
2021/03/05 04:17:39;;;;;;;16.92;9.35;;;5.90;99.90;;;;;;10572822;28;20074;-74
2021/03/05 04:22:45;;;;;;;16.85;9.18;;;5.90;99.90;;;;;;10538025;28;20062;-74
2021/03/05 04:27:47;;;;;;;17.98;10.10;;;5.80;99.90;;;;;;10572405;28;20419;-74
2021/03/05 04:32:48;;;;;;;19.80;10.18;;;5.70;99.90;;;;;;10554475;28;20108;-75
2021/03/05 04:37:50;;;;;;;26.13;11.45;;;5.70;99.90;;;;;;10571906;28;20062;-75
2021/03/05 04:42:51;;;;;;;25.35;11.48;;;5.80;99.90;;;;;;10553292;28;20083;-74
2021/03/05 04:47:53;;;;;;;25.42;12.50;;;5.90;99.90;;;;;;10572130;28;20078;-74
2021/03/05 04:52:55;;;;;;;22.02;11.05;;;5.90;99.90;;;;;;10571997;28;20578;-74
2021/03/05 04:57:57;;;;;;;24.50;12.45;;;5.80;99.90;;;;;;10572195;28;20411;-74
2021/03/05 05:02:58;;;;;;;25.90;12.48;;;5.70;99.90;;;;;;10571687;28;20080;-74
2021/03/05 05:08:00;;;;;;;22.80;12.30;;;5.80;99.90;;;;;;10571270;28;20047;-74
2021/03/05 05:13:02;;;;;;;29.38;15.18;;;5.80;99.90;;;;;;10552646;28;20089;-74
2021/03/05 05:18:03;;;;;;;28.15;14.60;;;5.90;99.90;;;;;;10571245;28;20416;-74
2021/03/05 05:23:05;;;;;;;29.77;13.75;;;5.80;99.90;;;;;;10571093;28;20165;-74
2021/03/05 05:28:07;;;;;;;27.27;13.48;;;5.80;99.90;;;;;;10570955;28;20078;-74
2021/03/05 05:33:08;;;;;;;26.30;12.90;;;5.70;99.90;;;;;;10570683;28;20113;-73
2021/03/05 05:38:10;;;;;;;26.40;14.55;;;5.70;99.90;;;;;;10569654;28;20048;-74
2021/03/05 05:43:11;;;;;;;25.73;13.65;;;5.60;99.90;;;;;;10569741;28;20113;-73
2021/03/05 05:48:13;;;;;;;28.35;14.95;;;5.40;99.90;;;;;;10573157;28;20122;-74
2021/03/05 05:53:15;;;;;;;30.45;13.65;;;5.50;99.90;;;;;;10560240;28;20044;-74
2021/03/05 05:58:17;;;;;;;26.00;13.10;;;5.50;99.90;;;;;;10578718;28;20256;-74
2021/03/05 06:03:19;;;;;;;26.58;13.98;;;5.40;99.90;;;;;;10578084;28;20745;-74
2021/03/05 06:08:21;;;;;;;29.63;14.93;;;5.30;99.90;;;;;;10559525;28;20479;-74
2021/03/05 06:13:27;;;;;;;23.80;13.98;;;5.30;99.90;;;;;;10577501;28;20055;-74
2021/03/05 06:18:30;;;;;;;26.17;13.68;;;5.50;99.90;;;;;;10577932;28;20139;-74
2021/03/05 06:23:34;;;;;;;27.45;14.38;;;5.70;99.90;;;;;;10578106;28;20087;-73
2021/03/05 06:28:35;;;;;;;32.15;16.30;;;5.90;99.90;;;;;;10577182;28;20464;-73
2021/03/05 06:33:37;;;;;;;35.78;16.02;;;5.90;99.90;;;;;;10595261;27;20047;-73
2021/03/05 06:38:44;;;;;;;30.67;16.27;;;5.90;99.90;;;;;;10574028;28;20105;-73
2021/03/05 06:43:51;;;;;;;30.88;15.20;;;5.90;99.90;;;;;;10574983;28;20094;-73
2021/03/05 06:48:54;;;;;;;26.50;15.55;;;6.10;99.90;;;;;;10572335;28;20047;-73
2021/03/05 06:54:02;;;;;;;30.98;15.25;;;6.10;99.90;;;;;;10574812;28;20403;-73
2021/03/05 06:59:11;;;;;;;32.97;16.98;;;6.10;99.90;;;;;;10574645;28;20058;-73
2021/03/05 07:04:25;;;;;;;29.70;17.98;;;6.20;99.90;;;;;;10574683;28;20094;-73
2021/03/05 07:09:29;;;;;;;44.90;24.42;;;6.30;99.90;;;;;;10574030;28;20445;-73
2021/03/05 07:14:32;;;;;;;31.52;19.70;;;6.30;99.90;;;;;;10574738;28;20466;-74
2021/03/05 07:19:36;;;;;;;36.10;19.77;;;6.40;99.90;;;;;;10556614;28;20472;-73
2021/03/05 07:24:38;;;;;;;35.45;21.35;;;6.40;99.90;;;;;;10575193;28;20044;-73
2021/03/05 07:29:44;;;;;;;31.50;19.65;;;6.50;99.90;;;;;;10556382;28;20392;-73
2021/03/05 07:34:57;;;;;;;39.88;22.88;;;6.40;99.90;;;;;;10556769;28;20454;-73
2021/03/05 07:40:06;;;;;;;33.55;18.45;;;6.40;99.90;;;;;;10573891;28;20052;-73
2021/03/05 07:45:09;;;;;;;36.38;20.38;;;6.30;99.90;;;;;;10574394;28;20081;-73
2021/03/05 07:50:13;;;;;;;30.88;19.42;;;6.20;99.90;;;;;;10555926;28;20419;-73
2021/03/05 07:55:14;;;;;;;25.05;15.98;;;6.30;99.90;;;;;;10573585;28;20114;-73
2021/03/05 08:00:18;;;;;;;18.83;13.27;;;6.30;99.90;;;;;;10573779;28;20087;-73
2021/03/05 08:05:44;;;;;;;21.45;12.18;;;6.30;99.90;;;;;;10573413;28;20537;-73
2021/03/05 08:10:49;;;;;;;21.17;12.95;;;6.40;99.90;;;;;;10572507;28;20192;-73
2021/03/05 08:15:52;;;;;;;20.77;14.30;;;6.10;99.90;;;;;;10573179;28;20502;-73
2021/03/05 08:20:53;;;;;;;22.25;13.75;;;6.00;99.90;;;;;;10572565;28;20083;-73
2021/03/05 08:25:55;;;;;;;16.15;10.80;;;6.20;99.90;;;;;;10572522;28;20506;-73
2021/03/05 08:30:56;;;;;;;16.08;10.88;;;6.40;99.90;;;;;;10572828;28;20056;-73
2021/03/05 08:35:59;;;;;;;14.90;10.52;;;6.50;99.90;;;;;;10554355;28;20126;-73
2021/03/05 08:41:04;;;;;;;16.10;10.75;;;6.90;99.90;;;;;;10572851;28;20048;-73
2021/03/05 08:46:07;;;;;;;15.43;11.15;;;7.40;99.90;;;;;;10571904;28;20083;-73
2021/03/05 08:51:18;;;;;;;13.40;10.40;;;7.50;99.90;;;;;;10572336;28;20123;-73
2021/03/05 08:56:23;;;;;;;14.90;10.50;;;7.80;99.90;;;;;;10571579;28;20051;-73
2021/03/05 09:01:39;;;;;;;16.48;10.40;;;7.80;99.90;;;;;;10553295;28;20047;-73
2021/03/05 09:06:54;;;;;;;15.38;10.55;;;8.30;99.90;;;;;;10571960;28;20047;-73
2021/03/05 09:12:13;;;;;;;15.75;9.75;;;8.50;99.90;;;;;;10570674;28;20087;-73
2021/03/05 09:17:15;;;;;;;14.98;10.13;;;8.50;99.90;;;;;;10571202;28;20043;-73
2021/03/05 09:22:20;;;;;;;16.33;10.32;;;8.70;99.90;;;;;;10554292;28;20051;-74
2021/03/05 09:27:25;;;;;;;12.48;9.35;;;8.80;99.90;;;;;;10579369;28;20040;-73
2021/03/05 09:32:26;;;;;;;12.90;8.52;;;8.70;99.90;;;;;;10579253;28;20138;-73
2021/03/05 09:37:29;;;;;;;11.50;7.90;;;8.10;99.90;;;;;;10579570;28;20407;-73
2021/03/05 09:42:57;;;;;;;11.55;7.60;;;7.70;99.90;;;;;;10560427;28;20105;-74
2021/03/05 09:47:59;;;;;;;9.43;7.35;;;7.90;99.90;;;;;;10578754;28;20101;-73
2021/03/05 09:53:26;;;;;;;10.10;8.32;;;7.90;99.90;;;;;;10579140;28;20399;-73
2021/03/05 09:58:27;;;;;;;12.40;8.13;;;7.90;99.90;;;;;;10578724;28;20070;-73
2021/03/05 10:03:29;;;;;;;11.68;8.43;;;7.70;99.90;;;;;;10578676;28;20086;-74
2021/03/05 10:08:31;;;;;;;8.68;6.85;;;7.70;99.90;;;;;;10578100;28;20077;-73
2021/03/05 10:13:43;;;;;;;7.32;4.70;;;7.60;99.90;;;;;;10578142;28;20055;-73
2021/03/05 10:18:53;;;;;;;5.90;4.35;;;7.50;95.10;;;;;;10559721;28;20087;-73
2021/03/05 10:23:56;;;;;;;8.37;5.00;;;7.40;93.70;;;;;;10576920;28;20105;-73
2021/03/05 10:29:07;;;;;;;6.32;4.70;;;7.30;91.70;;;;;;10577421;28;20237;-73
2021/03/05 10:34:21;;;;;;;8.75;5.28;;;7.60;92.50;;;;;;10576214;28;20044;-73
2021/03/05 10:39:25;;;;;;;6.03;4.60;;;8.00;91.70;;;;;;10576700;28;20134;-73
2021/03/05 10:44:28;;;;;;;6.45;4.43;;;8.20;85.50;;;;;;10576363;28;20043;-73
2021/03/05 10:49:30;;;;;;;5.80;4.25;;;8.10;80.10;;;;;;10575251;28;20138;-73
2021/03/05 10:54:32;;;;;;;9.60;4.72;;;7.80;81.40;;;;;;10575067;28;20082;-72
2021/03/05 10:59:33;;;;;;;6.68;4.13;;;7.60;80.50;;;;;;10557331;28;20055;-72
2021/03/05 11:04:35;;;;;;;5.50;4.10;;;7.80;79.80;;;;;;10575383;28;20056;-73
2021/03/05 11:09:37;;;;;;;8.30;4.45;;;8.20;76.20;;;;;;10575124;28;20134;-73
2021/03/05 11:14:38;;;;;;;7.95;5.13;;;8.50;74.90;;;;;;10575358;28;20484;-73
2021/03/05 11:19:40;;;;;;;7.18;4.70;;;8.60;72.80;;;;;;10574530;28;20497;-73
2021/03/05 11:24:41;;;;;;;6.47;4.57;;;8.80;72.80;;;;;;10555736;28;20148;-73
2021/03/05 11:29:43;;;;;;;5.97;4.25;;;8.90;70.70;;;;;;10574727;28;20082;-73
2021/03/05 11:34:44;;;;;;;6.15;4.40;;;9.20;69.70;;;;;;10556054;28;20480;-72
2021/03/05 11:39:46;;;;;;;7.20;4.30;;;9.80;65.00;;;;;;10573340;28;20048;-73
2021/03/05 11:44:48;;;;;;;6.53;4.25;;;10.40;66.00;;;;;;10572633;28;20035;-73
2021/03/05 11:49:49;;;;;;;7.68;4.15;;;10.10;62.70;;;;;;10573384;28;20075;-74
2021/03/05 11:54:50;;;;;;;6.45;4.55;;;10.30;60.30;;;;;;10573863;28;20071;-73
2021/03/05 11:59:52;;;;;;;5.85;4.30;;;10.30;60.80;;;;;;10555472;28;20547;-73
2021/03/05 12:04:53;;;;;;;5.53;3.95;;;9.70;60.50;;;;;;10555086;28;20043;-74
2021/03/05 12:09:55;;;;;;;7.40;3.92;;;8.90;59.30;;;;;;10572923;28;20112;-73
2021/03/05 12:14:56;;;;;;;5.80;4.30;;;8.40;59.90;;;;;;10555085;28;20100;-73
2021/03/05 12:19:57;;;;;;;6.45;4.13;;;8.20;61.40;;;;;;10572030;28;20569;-73
2021/03/05 12:24:59;;;;;;;6.25;4.20;;;8.60;63.70;;;;;;10572137;28;20558;-73
2021/03/05 12:30:02;;;;;;;5.95;4.20;;;8.60;61.10;;;;;;10572328;28;20484;-73
2021/03/05 12:35:05;;;;;;;6.15;3.90;;;8.70;58.80;;;;;;10571626;28;20131;-73
2021/03/05 12:40:08;;;;;;;7.63;4.18;;;9.00;61.20;;;;;;10572512;28;20124;-73
2021/03/05 12:45:11;;;;;;;5.35;4.05;;;9.30;58.60;;;;;;10571791;28;20471;-73
2021/03/05 12:50:13;;;;;;;8.70;3.85;;;9.00;58.00;;;;;;10571211;28;20507;-73
2021/03/05 12:55:15;;;;;;;5.03;3.50;;;8.90;59.10;;;;;;10572072;28;20108;-73
2021/03/05 13:00:16;;;;;;;5.47;3.50;;;8.50;57.10;;;;;;10570415;28;20104;-73
2021/03/05 13:05:18;;;;;;;5.82;3.28;;;8.30;56.50;;;;;;10571192;28;20130;-73
2021/03/05 13:10:22;;;;;;;5.55;3.97;;;8.20;56.80;;;;;;10553362;28;20054;-74
2021/03/05 13:15:23;;;;;;;4.45;3.40;;;8.30;57.50;;;;;;10570604;28;20048;-73
2021/03/05 13:20:25;;;;;;;7.38;4.15;;;8.70;57.70;;;;;;10571132;28;20052;-73
2021/03/05 13:25:32;;;;;;;6.50;4.03;;;9.70;56.50;;;;;;10570747;28;20449;-73
2021/03/05 13:30:33;;;;;;;5.60;3.55;;;9.80;59.80;;;;;;10570379;28;20051;-73
2021/03/05 13:35:36;;;;;;;5.95;3.47;;;9.50;55.30;;;;;;10570571;28;20050;-73
2021/03/05 13:40:37;;;;;;;4.93;3.55;;;9.10;56.30;;;;;;10570991;28;20635;-74
2021/03/05 13:45:39;;;;;;;5.95;3.17;;;8.80;55.90;;;;;;10551860;28;20102;-73
2021/03/05 13:50:44;;;;;;;4.68;3.00;;;8.50;55.90;;;;;;10570206;28;20039;-73
2021/03/05 13:55:46;;;;;;;4.45;2.80;;;8.50;55.10;;;;;;10570294;28;20051;-73
2021/03/05 14:00:47;;;;;;;6.10;2.88;;;8.60;54.90;;;;;;10570108;28;20112;-73
2021/03/05 14:05:49;;;;;;;4.22;2.60;;;8.70;54.30;;;;;;10570360;28;20097;-73
2021/03/05 14:10:51;;;;;;;5.15;3.03;;;8.80;54.20;;;;;;10556181;28;20059;-73
2021/03/05 14:15:52;;;;;;;5.35;2.65;;;9.00;54.50;;;;;;10558793;28;20480;-73
2021/03/05 14:20:55;;;;;;;4.05;2.70;;;8.90;53.30;;;;;;10535281;28;20181;-73
2021/03/05 14:25:56;;;;;;;11.88;6.90;;;9.10;53.10;;;;;;10545638;28;20075;-71
2021/03/05 14:30:58;;;;;;;4.82;3.10;;;9.10;55.50;;;;;;10574689;28;20086;-73
2021/03/05 14:36:00;;;;;;;4.25;3.03;;;9.20;53.60;;;;;;10575505;28;20062;-67
2021/03/05 14:41:02;;;;;;;4.88;2.95;;;9.10;54.50;;;;;;10566454;28;20100;-67
2021/03/05 14:46:04;;;;;;;4.15;2.60;;;9.40;55.20;;;;;;10570628;28;20122;-67
2021/03/05 14:51:06;;;;;;;3.80;2.72;;;9.30;52.40;;;;;;10571639;28;20146;-67
2021/03/05 14:56:08;;;;;;;3.55;2.55;;;8.90;53.60;;;;;;10571715;28;20046;-66
2021/03/05 15:01:10;;;;;;;4.75;2.58;;;8.90;53.30;;;;;;10552199;28;20134;-66
2021/03/05 15:06:12;;;;;;;4.22;2.50;;;8.70;52.40;;;;;;10551600;28;20074;-67
2021/03/05 15:11:14;;;;;;;3.97;2.58;;;8.70;52.90;;;;;;10570290;28;20052;-66
2021/03/05 15:16:16;;;;;;;3.65;2.38;;;8.60;52.70;;;;;;10571419;28;20637;-66
2021/03/05 15:21:18;;;;;;;5.35;2.70;;;8.50;52.80;;;;;;10562757;28;20087;-66
2021/03/05 15:26:19;;;;;;;4.97;2.92;;;8.40;52.50;;;;;;10572750;28;20036;-66
2021/03/05 15:31:21;;;;;;;4.70;2.80;;;8.40;52.00;;;;;;10553707;28;20739;-67
2021/03/05 15:36:23;;;;;;;4.93;3.28;;;8.50;54.30;;;;;;10572090;28;20087;-67
2021/03/05 15:41:24;;;;;;;4.78;3.30;;;8.50;53.70;;;;;;10568313;28;20043;-67
2021/03/05 15:46:26;;;;;;;4.72;3.03;;;8.30;54.90;;;;;;10568004;28;20047;-66
2021/03/05 15:51:28;;;;;;;5.18;3.10;;;8.20;54.40;;;;;;10553582;28;20039;-67
2021/03/05 15:56:30;;;;;;;5.15;2.90;;;8.10;56.40;;;;;;10553425;28;20142;-68
2021/03/05 16:01:31;;;;;;;5.32;3.20;;;7.60;55.00;;;;;;10535325;27;20043;-67
2021/03/05 16:06:45;;;;;;;4.05;2.80;;;7.40;55.00;;;;;;10538990;28;20062;-67
2021/03/05 16:11:46;;;;;;;4.60;3.08;;;7.10;55.90;;;;;;10570545;28;20089;-67
2021/03/05 16:16:48;;;;;;;4.88;2.70;;;7.20;55.90;;;;;;10571249;28;20087;-67
2021/03/05 16:21:50;;;;;;;5.43;3.10;;;7.30;56.40;;;;;;10571093;28;20047;-66
2021/03/05 16:26:52;;;;;;;4.90;3.05;;;7.30;55.70;;;;;;10570153;28;20118;-66
2021/03/05 16:31:55;;;;;;;4.47;3.15;;;7.40;57.30;;;;;;10570335;28;20079;-67
2021/03/05 16:36:56;;;;;;;6.07;3.45;;;7.50;58.10;;;;;;10552494;28;20036;-67
2021/03/05 16:41:58;;;;;;;6.03;3.60;;;7.50;57.60;;;;;;10565723;28;20076;-67
2021/03/05 16:46:59;;;;;;;5.72;3.45;;;7.40;58.50;;;;;;10536820;27;20500;-67
2021/03/05 16:52:02;;;;;;;8.30;3.72;;;7.30;57.40;;;;;;10547444;28;20130;-67
2021/03/05 16:57:04;;;;;;;6.78;3.53;;;7.00;56.90;;;;;;10550440;28;20043;-67
2021/03/05 17:02:06;;;;;;;4.45;3.22;;;6.80;59.20;;;;;;10568440;28;20089;-67
2021/03/05 17:07:08;;;;;;;5.88;3.28;;;6.60;57.90;;;;;;10568463;28;20536;-66
2021/03/05 17:12:10;;;;;;;5.28;3.10;;;6.50;59.10;;;;;;10568695;28;20506;-66
2021/03/05 17:17:11;;;;;;;5.80;3.20;;;6.40;60.80;;;;;;10567045;28;20459;-66
2021/03/05 17:22:13;;;;;;;6.57;3.28;;;6.30;61.90;;;;;;10550170;28;20058;-67
2021/03/05 17:27:14;;;;;;;6.45;3.80;;;6.10;62.80;;;;;;10536197;28;20047;-66
2021/03/05 17:32:16;;;;;;;7.00;4.10;;;5.90;62.60;;;;;;10559328;28;20079;-66
2021/03/05 17:37:18;;;;;;;8.23;4.90;;;5.80;61.00;;;;;;10568828;28;20120;-67
2021/03/05 17:42:19;;;;;;;7.13;4.68;;;5.70;63.70;;;;;;10568601;28;20056;-66
2021/03/05 17:47:21;;;;;;;7.15;4.25;;;5.70;66.00;;;;;;10555659;28;20087;-66
2021/03/05 17:52:23;;;;;;;8.23;4.47;;;5.50;65.90;;;;;;10557547;28;20431;-66
2021/03/05 17:57:24;;;;;;;6.95;4.50;;;5.30;64.30;;;;;;10558310;28;20051;-67
2021/03/05 18:02:26;;;;;;;6.65;4.53;;;5.20;66.40;;;;;;10556685;28;20385;-66
2021/03/05 18:07:27;;;;;;;8.25;4.60;;;5.20;68.70;;;;;;10576338;28;20040;-66
2021/03/05 18:12:29;;;;;;;7.55;5.10;;;5.10;69.60;;;;;;10576241;28;20515;-74
2021/03/05 18:17:31;;;;;;;7.00;4.95;;;5.00;70.20;;;;;;10573323;28;20051;-74
2021/03/05 18:22:33;;;;;;;9.18;6.05;;;4.90;70.70;;;;;;10573861;28;20047;-74
2021/03/05 18:27:34;;;;;;;9.57;6.50;;;4.80;72.90;;;;;;10571100;28;20046;-74
2021/03/05 18:32:36;;;;;;;9.65;5.60;;;4.60;74.30;;;;;;10574138;28;20047;-73
2021/03/05 18:37:39;;;;;;;6.10;4.15;;;4.40;79.50;;;;;;10575503;28;20437;-74
2021/03/05 18:42:41;;;;;;;23.63;15.93;;;4.30;82.80;;;;;;10575316;28;20135;-74
2021/03/05 18:47:42;;;;;;;8.75;6.70;;;4.20;86.30;;;;;;10574618;28;20071;-74
2021/03/05 18:52:44;;;;;;;9.00;6.15;;;4.00;89.90;;;;;;10574839;28;20380;-73
2021/03/05 18:57:45;;;;;;;10.32;6.50;;;3.90;91.70;;;;;;10555694;28;20074;-74
2021/03/05 19:02:48;;;;;;;10.80;7.63;;;3.70;94.10;;;;;;10574108;28;20400;-74
2021/03/05 19:07:50;;;;;;;9.65;7.13;;;3.70;96.00;;;;;;10555217;28;20051;-74
2021/03/05 19:12:51;;;;;;;10.45;7.38;;;3.70;98.00;;;;;;10572395;28;20067;-74
2021/03/05 19:17:52;;;;;;;10.95;8.70;;;3.60;99.40;;;;;;10571054;28;20573;-74
2021/03/05 19:22:54;;;;;;;11.82;8.10;;;3.50;99.90;;;;;;10572638;28;20517;-74
2021/03/05 19:27:56;;;;;;;10.23;6.15;;;3.30;99.90;;;;;;10570963;28;20512;-74
2021/03/05 19:32:58;;;;;;;8.65;6.25;;;3.20;99.90;;;;;;10572201;28;20089;-74
2021/03/05 19:37:59;;;;;;;8.40;6.15;;;3.20;99.90;;;;;;10572968;28;20376;-74
2021/03/05 19:43:05;;;;;;;10.38;7.10;;;3.10;99.90;;;;;;10555074;28;20563;-73
2021/03/05 19:48:10;;;;;;;14.20;8.45;;;2.90;99.90;;;;;;10572212;28;20470;-73
2021/03/05 19:53:12;;;;;;;8.10;5.70;;;2.70;99.90;;;;;;10571610;28;20116;-73
2021/03/05 19:58:14;;;;;;;10.80;6.68;;;2.70;99.90;;;;;;10571741;28;20039;-73
2021/03/05 20:03:16;;;;;;;7.88;5.80;;;2.70;99.90;;;;;;10571871;28;20518;-74
2021/03/05 20:08:19;;;;;;;10.63;6.57;;;2.70;99.90;;;;;;10571161;28;20553;-74
2021/03/05 20:13:20;;;;;;;10.77;6.63;;;2.70;99.90;;;;;;10571104;28;20063;-74
2021/03/05 20:18:23;;;;;;;16.90;9.23;;;2.70;99.90;;;;;;10571395;28;20571;-73
2021/03/05 20:23:46;;;;;;;12.93;8.45;;;2.60;99.90;;;;;;10556097;28;20997;-74
2021/03/05 20:28:48;;;;;;;14.93;8.95;;;2.60;99.90;;;;;;10571994;28;20046;-73
2021/03/05 20:33:50;;;;;;;9.73;6.57;;;2.50;99.90;;;;;;10551740;28;20056;-74
2021/03/05 20:38:52;;;;;;;9.45;5.85;;;2.30;99.90;;;;;;10571071;28;20165;-74
2021/03/05 20:43:54;;;;;;;12.40;6.70;;;2.20;99.90;;;;;;10570819;28;20058;-73
2021/03/05 20:48:55;;;;;;;10.13;6.97;;;2.20;99.90;;;;;;10570289;28;20083;-74
2021/03/05 20:53:57;;;;;;;12.43;7.65;;;2.20;99.90;;;;;;10552391;28;20101;-74
2021/03/05 20:58:58;;;;;;;12.88;6.90;;;2.10;99.90;;;;;;10535445;28;20040;-73
2021/03/05 21:04:00;;;;;;;11.45;7.22;;;2.00;99.90;;;;;;10550367;28;20062;-74
2021/03/05 21:09:03;;;;;;;11.45;7.47;;;2.00;99.90;;;;;;10569949;28;20123;-74
2021/03/05 21:14:05;;;;;;;11.73;7.60;;;1.80;99.90;;;;;;10570001;28;20052;-74
2021/03/05 21:19:07;;;;;;;10.10;6.20;;;1.80;99.90;;;;;;10577261;28;20549;-74
2021/03/05 21:24:09;;;;;;;11.07;5.45;;;1.80;99.90;;;;;;10583661;28;20054;-74
2021/03/05 21:29:11;;;;;;;11.60;6.20;;;1.80;99.90;;;;;;10583274;28;20079;-74
2021/03/05 21:34:12;;;;;;;13.32;7.60;;;1.80;99.90;;;;;;10583388;28;20163;-74
2021/03/05 21:39:14;;;;;;;26.05;12.50;;;1.70;99.90;;;;;;10565626;28;20130;-74
2021/03/05 21:44:15;;;;;;;21.08;9.45;;;1.60;99.90;;;;;;10582696;28;20079;-74
2021/03/05 21:49:17;;;;;;;16.30;8.18;;;1.50;99.90;;;;;;10582851;28;20082;-74
2021/03/05 21:54:28;;;;;;;12.85;7.25;;;1.50;99.90;;;;;;10583107;28;20495;-74
2021/03/05 21:59:31;;;;;;;9.60;6.32;;;1.50;99.90;;;;;;10583065;28;20483;-73
2021/03/05 22:04:34;;;;;;;23.77;10.63;;;1.40;99.90;;;;;;10565480;28;20052;-74
2021/03/05 22:09:49;;;;;;;31.55;13.32;;;1.40;99.90;;;;;;10582479;28;20059;-74
2021/03/05 22:14:51;;;;;;;19.15;9.45;;;1.40;99.90;;;;;;10582630;28;20086;-74
2021/03/05 22:19:52;;;;;;;11.25;7.68;;;1.40;99.90;;;;;;10582345;28;20152;-73
2021/03/05 22:24:54;;;;;;;12.15;7.47;;;1.30;99.90;;;;;;10581727;28;20487;-74
2021/03/05 22:29:55;;;;;;;13.98;9.32;;;1.20;99.90;;;;;;10579876;28;20107;-74
2021/03/05 22:34:57;;;;;;;15.80;10.00;;;1.10;99.90;;;;;;10557043;28;20441;-73
2021/03/05 22:39:58;;;;;;;12.32;7.28;;;1.10;99.90;;;;;;10575852;28;20119;-75
2021/03/05 22:45:00;;;;;;;14.38;8.13;;;1.10;99.90;;;;;;10575399;28;20047;-73
2021/03/05 22:50:02;;;;;;;15.15;7.57;;;1.00;99.90;;;;;;10575124;28;20515;-73
2021/03/05 22:55:12;;;;;;;10.15;6.80;;;1.00;99.90;;;;;;10558530;28;20142;-74
2021/03/05 23:00:21;;;;;;;9.80;6.53;;;1.00;99.90;;;;;;10574358;28;20584;-74
2021/03/05 23:05:24;;;;;;;10.20;7.07;;;1.10;99.90;;;;;;10574085;28;20546;-73
2021/03/05 23:10:32;;;;;;;9.25;6.45;;;0.90;99.90;;;;;;10574070;28;20074;-73
2021/03/05 23:15:34;;;;;;;9.70;6.35;;;0.90;99.90;;;;;;10574276;28;20487;-74
2021/03/05 23:20:39;;;;;;;8.90;6.07;;;0.80;99.90;;;;;;10573916;28;20075;-74
2021/03/05 23:25:42;;;;;;;11.25;6.65;;;0.80;99.90;;;;;;10573548;28;20105;-73
2021/03/05 23:30:44;;;;;;;10.02;6.80;;;0.70;99.90;;;;;;10555531;28;20122;-74
2021/03/05 23:35:45;;;;;;;10.85;6.53;;;0.80;99.90;;;;;;10573689;28;20086;-73
2021/03/05 23:40:48;;;;;;;12.07;6.57;;;0.80;99.90;;;;;;10572527;28;20052;-74
2021/03/05 23:45:49;;;;;;;11.63;7.30;;;0.70;99.90;;;;;;10573027;28;20126;-74
2021/03/05 23:50:51;;;;;;;9.95;6.90;;;0.60;99.90;;;;;;10554697;28;20586;-74
2021/03/05 23:55:59;;;;;;;12.23;6.85;;;0.60;99.90;;;;;;10572709;28;20130;-74
